createdAt,value
2019-01-24T00:00:30.488Z,14.90
2019-01-24T00:02:59.486Z,15.83
2019-01-24T00:05:28.478Z,19.98
2019-01-24T00:07:57.091Z,19.82
2019-01-24T00:10:25.891Z,20.27
2019-01-24T00:12:55.144Z,19.57
2019-01-24T00:15:24.139Z,20.92
2019-01-24T00:17:53.058Z,20.43
2019-01-24T00:20:22.031Z,18.37
2019-01-24T00:22:50.674Z,21.80
2019-01-24T00:25:19.620Z,21.57
2019-01-24T00:27:48.496Z,20.48
2019-01-24T00:30:17.237Z,20.65
2019-01-24T00:32:46.480Z,21.55
2019-01-24T00:35:15.867Z,20.88
2019-01-24T00:37:44.981Z,16.07
2019-01-24T00:40:16.330Z,21.05
2019-01-24T00:42:45.429Z,19.25
2019-01-24T00:45:14.831Z,24.65
2019-01-24T00:47:43.824Z,17.70
2019-01-24T00:50:12.923Z,19.42
2019-01-24T00:52:41.924Z,19.50
2019-01-24T00:55:11.994Z,17.02
2019-01-24T00:57:40.701Z,19.02
2019-01-24T01:00:13.136Z,19.73
2019-01-24T01:02:42.098Z,19.30
2019-01-24T01:05:12.608Z,18.25
2019-01-24T01:07:41.526Z,16.45
2019-01-24T01:10:11.116Z,17.45
2019-01-24T01:12:40.415Z,19.02
2019-01-24T01:15:12.491Z,18.52
2019-01-24T01:17:41.146Z,19.87
2019-01-24T01:20:12.675Z,19.92
2019-01-24T01:22:41.620Z,20.37
2019-01-24T01:25:11.636Z,18.67
2019-01-24T01:27:40.940Z,19.55
2019-01-24T01:30:15.096Z,20.32
2019-01-24T01:32:44.761Z,19.73
2019-01-24T01:35:20.926Z,16.90
2019-01-24T01:37:49.578Z,19.07
2019-01-24T01:40:18.808Z,13.68
2019-01-24T01:42:47.888Z,19.40
2019-01-24T01:45:18.981Z,22.25
2019-01-24T01:47:48.347Z,20.32
2019-01-24T01:50:19.607Z,23.27
2019-01-24T01:52:48.321Z,20.20
2019-01-24T01:55:17.068Z,21.15
2019-01-24T01:57:46.006Z,18.90
2019-01-24T02:00:18.032Z,20.52
2019-01-24T02:02:47.055Z,20.32
2019-01-24T02:05:16.523Z,16.32
2019-01-24T02:07:45.158Z,18.82
2019-01-24T02:10:16.459Z,18.73
2019-01-24T02:12:45.265Z,18.85
2019-01-24T02:15:14.733Z,18.50
2019-01-24T02:17:43.645Z,19.52
2019-01-24T02:20:15.452Z,19.05
2019-01-24T02:22:44.166Z,21.37
2019-01-24T02:25:13.184Z,14.90
2019-01-24T02:27:42.174Z,17.12
2019-01-24T02:30:14.753Z,18.48
2019-01-24T02:32:43.382Z,20.10
2019-01-24T02:35:12.439Z,18.98
2019-01-24T02:37:41.057Z,20.30
2019-01-24T02:40:10.626Z,19.40
2019-01-24T02:42:39.344Z,20.45
2019-01-24T02:45:12.095Z,20.05
2019-01-24T02:47:40.900Z,20.08
2019-01-24T02:50:12.353Z,20.55
2019-01-24T02:52:41.331Z,17.52
2019-01-24T02:55:12.267Z,20.55
2019-01-24T02:57:41.159Z,17.52
2019-01-24T03:00:12.028Z,22.10
2019-01-24T03:02:40.997Z,19.45
2019-01-24T03:05:11.940Z,17.05
2019-01-24T03:07:40.654Z,20.30
2019-01-24T03:10:10.620Z,21.15
2019-01-24T03:12:39.252Z,21.40
2019-01-24T03:15:09.667Z,19.80
2019-01-24T03:17:38.646Z,19.37
2019-01-24T03:20:08.050Z,15.08
2019-01-24T03:22:36.776Z,19.05
2019-01-24T03:25:06.523Z,18.00
2019-01-24T03:27:35.157Z,17.67
2019-01-24T03:30:05.556Z,16.00
2019-01-24T03:32:34.462Z,19.25
2019-01-24T03:35:04.401Z,20.27
2019-01-24T03:37:33.398Z,19.98
2019-01-24T03:40:02.351Z,17.92
2019-01-24T03:42:31.242Z,18.37
2019-01-24T03:45:00.248Z,20.80
2019-01-24T03:47:29.535Z,19.95
2019-01-24T03:49:58.516Z,20.90
2019-01-24T03:52:27.168Z,20.35
2019-01-24T03:54:56.103Z,21.02
2019-01-24T03:57:25.002Z,20.40
2019-01-24T03:59:53.657Z,20.20
2019-01-24T04:02:22.680Z,20.45
2019-01-24T04:04:51.669Z,20.80
2019-01-24T04:07:20.299Z,19.23
2019-01-24T04:09:49.247Z,21.82
2019-01-24T04:12:18.343Z,19.75
2019-01-24T04:14:47.232Z,21.25
2019-01-24T04:17:16.127Z,20.48
2019-01-24T04:19:44.809Z,22.50
2019-01-24T04:22:13.436Z,20.68
2019-01-24T04:24:42.388Z,16.35
2019-01-24T04:27:11.595Z,21.57
2019-01-24T04:29:40.205Z,20.70
2019-01-24T04:32:08.836Z,21.37
2019-01-24T04:34:37.483Z,18.48
2019-01-24T04:37:06.434Z,18.70
2019-01-24T04:39:35.334Z,20.82
2019-01-24T04:42:04.322Z,20.17
2019-01-24T04:44:33.305Z,19.87
2019-01-24T04:47:02.317Z,22.77
2019-01-24T04:49:30.983Z,22.02
2019-01-24T04:51:59.899Z,21.10
2019-01-24T04:54:29.191Z,20.43
2019-01-24T04:56:58.186Z,17.40
2019-01-24T04:59:27.625Z,20.08
2019-01-24T05:01:56.683Z,21.35
2019-01-24T05:04:25.314Z,18.80
2019-01-24T05:06:54.262Z,20.77
2019-01-24T05:09:22.904Z,21.37
2019-01-24T05:11:51.940Z,21.10
2019-01-24T05:14:20.834Z,22.35
2019-01-24T05:16:50.026Z,22.80
2019-01-24T05:19:19.022Z,22.45
2019-01-24T05:21:48.220Z,22.22
2019-01-24T05:24:16.849Z,22.67
2019-01-24T05:26:45.496Z,19.57
2019-01-24T05:29:14.212Z,25.50
2019-01-24T05:31:42.871Z,22.02
2019-01-24T05:34:12.164Z,23.02
2019-01-24T05:36:41.180Z,22.32
2019-01-24T05:39:10.160Z,22.98
2019-01-24T05:41:38.791Z,23.20
2019-01-24T05:44:07.434Z,22.00
2019-01-24T05:46:36.093Z,22.32
2019-01-24T05:49:04.818Z,22.90
2019-01-24T05:51:33.789Z,22.00
2019-01-24T05:54:03.092Z,20.77
2019-01-24T05:56:31.740Z,20.20
2019-01-24T05:59:00.663Z,19.85
2019-01-24T06:01:29.943Z,21.73
2019-01-24T06:03:58.628Z,22.85
2019-01-24T06:06:27.551Z,24.43
2019-01-24T06:08:56.540Z,23.32
2019-01-24T06:11:25.283Z,20.17
2019-01-24T06:13:53.931Z,25.17
2019-01-24T06:16:22.575Z,22.10
2019-01-24T06:18:51.796Z,22.42
2019-01-24T06:21:20.785Z,21.85
2019-01-24T06:23:49.424Z,23.27
2019-01-24T06:26:18.094Z,23.55
2019-01-24T06:28:46.720Z,23.75
2019-01-24T06:31:15.333Z,21.48
2019-01-24T06:33:44.325Z,23.52
2019-01-24T06:36:13.716Z,21.48
2019-01-24T06:38:42.625Z,22.45
2019-01-24T06:41:11.288Z,22.75
2019-01-24T06:43:40.193Z,22.30
2019-01-24T06:46:08.811Z,23.02
2019-01-24T06:48:37.818Z,21.93
2019-01-24T06:51:06.770Z,21.20
2019-01-24T06:53:35.806Z,21.40
2019-01-24T06:56:04.521Z,19.85
2019-01-24T06:58:33.176Z,19.10
2019-01-24T07:01:01.811Z,20.60
2019-01-24T07:03:30.535Z,20.90
2019-01-24T07:05:59.166Z,21.20
2019-01-24T07:08:28.087Z,22.32
2019-01-24T07:10:57.150Z,21.65
2019-01-24T07:13:26.384Z,20.00
2019-01-24T07:15:55.052Z,21.57
2019-01-24T07:18:24.067Z,22.65
2019-01-24T07:20:52.694Z,22.17
2019-01-24T07:23:21.745Z,19.32
2019-01-24T07:25:51.150Z,21.65
2019-01-24T07:28:20.173Z,22.75
2019-01-24T07:30:49.127Z,22.15
2019-01-24T07:33:18.331Z,21.45
2019-01-24T07:35:47.324Z,23.22
2019-01-24T07:38:15.964Z,22.85
2019-01-24T07:40:46.236Z,21.25
2019-01-24T07:43:15.765Z,21.68
2019-01-24T07:45:44.429Z,22.80
2019-01-24T07:48:13.072Z,23.45
2019-01-24T07:50:42.008Z,23.75
2019-01-24T07:53:11.004Z,23.20
2019-01-24T07:55:39.996Z,26.77
2019-01-24T07:58:08.884Z,22.50
2019-01-24T08:00:37.537Z,21.07
2019-01-24T08:03:06.566Z,22.02
2019-01-24T08:05:35.532Z,20.20
2019-01-24T08:08:04.561Z,22.02
2019-01-24T08:10:33.546Z,20.80
2019-01-24T08:13:02.266Z,21.33
2019-01-24T08:15:31.329Z,20.75
2019-01-24T08:18:00.322Z,21.25
2019-01-24T08:20:29.308Z,21.60
2019-01-24T08:22:58.207Z,20.97
2019-01-24T08:25:26.958Z,21.02
2019-01-24T08:27:56.399Z,21.82
2019-01-24T08:30:27.187Z,18.95
2019-01-24T08:32:56.275Z,20.55
2019-01-24T08:35:25.632Z,21.87
2019-01-24T08:37:54.346Z,23.38
2019-01-24T08:40:23.414Z,21.35
2019-01-24T08:42:52.518Z,21.55
2019-01-24T08:45:21.286Z,20.52
2019-01-24T08:47:50.317Z,21.07
2019-01-24T08:50:20.607Z,18.90
2019-01-24T08:52:49.410Z,20.43
2019-01-24T08:55:35.519Z,20.27
2019-01-24T08:58:04.554Z,21.07
2019-01-24T09:00:33.287Z,20.62
2019-01-24T09:03:01.949Z,25.95
2019-01-24T09:05:30.853Z,21.17
2019-01-24T09:07:59.559Z,21.20
2019-01-24T09:10:31.006Z,16.55
2019-01-24T09:13:00.196Z,18.67
2019-01-24T09:15:29.509Z,20.80
2019-01-24T09:17:58.149Z,19.02
2019-01-24T09:20:27.093Z,17.70
2019-01-24T09:22:56.050Z,20.12
2019-01-24T09:25:24.971Z,18.57
2019-01-24T09:27:53.688Z,21.25
2019-01-24T09:30:24.042Z,18.60
2019-01-24T09:32:52.820Z,19.05
2019-01-24T09:35:21.872Z,20.08
2019-01-24T09:37:50.497Z,19.82
2019-01-24T09:40:19.648Z,19.35
2019-01-24T09:42:48.642Z,20.75
2019-01-24T09:45:19.829Z,20.43
2019-01-24T09:47:48.952Z,20.10
2019-01-24T09:50:20.039Z,21.15
2019-01-24T09:52:48.714Z,21.75
2019-01-24T09:55:17.418Z,22.55
2019-01-24T09:57:46.068Z,22.65
2019-01-24T10:00:17.632Z,20.17
2019-01-24T10:02:46.347Z,20.62
2019-01-24T10:05:15.594Z,20.88
2019-01-24T10:07:44.615Z,19.80
2019-01-24T10:10:15.845Z,19.85
2019-01-24T10:12:44.856Z,20.27
2019-01-24T10:15:14.097Z,21.73
2019-01-24T10:17:42.781Z,21.02
2019-01-24T10:20:13.366Z,22.17
2019-01-24T10:22:42.018Z,18.77
2019-01-24T10:25:17.509Z,19.40
2019-01-24T10:27:46.499Z,19.32
2019-01-24T10:30:16.993Z,19.73
2019-01-24T10:32:46.020Z,19.98
2019-01-24T10:35:15.628Z,20.43
2019-01-24T10:37:44.929Z,20.12
2019-01-24T10:40:17.347Z,21.30
2019-01-24T10:42:46.295Z,20.43
2019-01-24T10:45:15.980Z,20.85
2019-01-24T10:47:44.698Z,20.05
2019-01-24T10:50:14.678Z,20.82
2019-01-24T10:52:44.012Z,18.98
2019-01-24T10:55:15.461Z,16.80
2019-01-24T10:57:44.869Z,19.48
2019-01-24T11:00:17.646Z,23.62
2019-01-24T11:02:46.363Z,19.82
2019-01-24T11:05:16.166Z,19.52
2019-01-24T11:07:44.895Z,19.35
2019-01-24T11:10:14.864Z,19.30
2019-01-24T11:12:43.486Z,19.70
2019-01-24T11:15:15.294Z,20.10
2019-01-24T11:17:44.298Z,20.02
2019-01-24T11:20:13.520Z,19.48
2019-01-24T11:22:42.508Z,20.82
2019-01-24T11:25:14.451Z,19.60
2019-01-24T11:27:43.191Z,18.92
2019-01-24T11:30:14.999Z,19.82
2019-01-24T11:32:43.994Z,19.60
2019-01-24T11:35:14.626Z,17.65
2019-01-24T11:37:43.624Z,19.10
2019-01-24T11:40:14.127Z,19.82
2019-01-24T11:42:43.364Z,20.32
2019-01-24T11:45:12.853Z,18.42
2019-01-24T11:47:41.717Z,21.17
2019-01-24T11:50:13.909Z,19.55
2019-01-24T11:52:42.980Z,21.12
2019-01-24T11:55:12.870Z,19.45
2019-01-24T11:57:41.670Z,18.52
2019-01-24T12:00:16.844Z,20.37
2019-01-24T12:02:45.841Z,19.23
2019-01-24T12:05:14.577Z,18.52
2019-01-24T12:07:43.526Z,19.32
2019-01-24T12:10:15.173Z,19.55
2019-01-24T12:12:43.901Z,20.77
2019-01-24T12:15:14.229Z,20.65
2019-01-24T12:17:42.946Z,20.95
2019-01-24T12:20:16.163Z,20.10
2019-01-24T12:22:45.130Z,18.02
2019-01-24T12:25:14.265Z,18.75
2019-01-24T12:27:43.363Z,16.73
2019-01-24T12:30:18.531Z,17.35
2019-01-24T12:32:47.335Z,17.82
2019-01-24T12:35:16.049Z,19.80
2019-01-24T12:37:45.275Z,18.98
2019-01-24T12:40:14.369Z,17.48
2019-01-24T12:42:43.100Z,19.85
2019-01-24T12:45:14.978Z,17.87
2019-01-24T12:47:43.716Z,19.67
2019-01-24T12:50:13.932Z,19.95
2019-01-24T12:52:42.629Z,18.67
2019-01-24T12:55:11.989Z,18.50
2019-01-24T12:57:41.116Z,20.00
2019-01-24T13:00:13.924Z,20.55
2019-01-24T13:02:42.990Z,19.35
2019-01-24T13:05:11.809Z,20.55
2019-01-24T13:07:40.477Z,19.82
2019-01-24T13:10:10.417Z,20.23
2019-01-24T13:12:39.073Z,21.15
2019-01-24T13:15:08.102Z,20.75
2019-01-24T13:17:37.154Z,20.90
2019-01-24T13:20:07.553Z,21.73
2019-01-24T13:22:36.465Z,21.90
2019-01-24T13:25:08.128Z,22.13
2019-01-24T13:27:36.772Z,22.17
2019-01-24T13:30:08.213Z,23.22
2019-01-24T13:32:37.257Z,22.65
2019-01-24T13:35:06.076Z,22.30
2019-01-24T13:37:34.744Z,21.60
2019-01-24T13:40:03.488Z,22.75
2019-01-24T13:42:32.414Z,23.12
2019-01-24T13:45:01.064Z,25.17
2019-01-24T13:47:29.992Z,25.32
2019-01-24T13:49:58.992Z,24.43
2019-01-24T13:52:27.979Z,25.08
2019-01-24T13:54:56.876Z,24.25
2019-01-24T13:57:25.524Z,24.52
2019-01-24T13:59:54.647Z,24.32
2019-01-24T14:02:23.963Z,24.72
2019-01-24T14:04:52.847Z,24.35
2019-01-24T14:07:21.572Z,25.02
2019-01-24T14:09:50.199Z,23.83
2019-01-24T14:12:19.132Z,25.43
2019-01-24T14:14:48.308Z,24.72
2019-01-24T14:17:17.200Z,26.07
2019-01-24T14:19:46.095Z,25.37
2019-01-24T14:22:15.128Z,24.07
2019-01-24T14:24:44.079Z,24.60
2019-01-24T14:27:12.783Z,24.87
2019-01-24T14:29:41.769Z,25.55
2019-01-24T14:32:10.399Z,25.62
2019-01-24T14:34:39.854Z,25.48
2019-01-24T14:37:09.052Z,26.70
2019-01-24T14:39:37.704Z,26.45
2019-01-24T14:42:06.413Z,27.22
2019-01-24T14:44:35.416Z,28.20
2019-01-24T14:47:04.307Z,24.50
2019-01-24T14:49:32.960Z,27.67
2019-01-24T14:52:01.625Z,26.48
2019-01-24T14:54:30.980Z,27.15
2019-01-24T14:56:59.871Z,26.52
2019-01-24T14:59:28.865Z,26.82
2019-01-24T15:01:58.167Z,25.10
2019-01-24T15:04:27.260Z,26.52
2019-01-24T15:06:55.890Z,26.33
2019-01-24T15:09:24.867Z,27.32
2019-01-24T15:11:53.546Z,27.15
2019-01-24T15:14:22.521Z,26.37
2019-01-24T15:16:51.174Z,26.52
2019-01-24T15:19:20.411Z,27.60
2019-01-24T15:21:49.069Z,28.35
2019-01-24T15:24:17.690Z,26.90
2019-01-24T15:26:46.345Z,28.87
2019-01-24T15:29:14.968Z,26.57
2019-01-24T15:31:43.946Z,27.80
2019-01-24T15:34:12.936Z,27.20
2019-01-24T15:36:41.927Z,25.90
2019-01-24T15:39:10.574Z,27.70
2019-01-24T15:41:39.817Z,27.58
2019-01-24T15:44:08.528Z,25.45
2019-01-24T15:46:37.498Z,25.82
2019-01-24T15:49:06.485Z,28.32
2019-01-24T15:51:35.480Z,27.58
2019-01-24T15:54:04.579Z,27.45
2019-01-24T15:56:33.569Z,26.42
2019-01-24T15:59:02.465Z,26.50
2019-01-24T16:01:31.182Z,27.45
2019-01-24T16:04:00.148Z,28.40
2019-01-24T16:06:29.733Z,27.37
2019-01-24T16:08:58.639Z,26.68
2019-01-24T16:11:27.644Z,26.45
2019-01-24T16:13:56.624Z,27.73
2019-01-24T16:16:25.253Z,27.58
2019-01-24T16:18:54.208Z,27.77
2019-01-24T16:21:23.200Z,27.07
2019-01-24T16:23:52.080Z,28.07
2019-01-24T16:26:21.083Z,27.65
2019-01-24T16:28:49.735Z,28.65
2019-01-24T16:31:18.356Z,28.67
2019-01-24T16:33:47.031Z,29.55
2019-01-24T16:36:15.782Z,27.13
2019-01-24T16:38:44.719Z,31.80
2019-01-24T16:41:13.628Z,29.55
2019-01-24T16:43:42.325Z,29.85
2019-01-24T16:46:11.700Z,28.60
2019-01-24T16:48:40.592Z,28.83
2019-01-24T16:51:09.331Z,27.90
2019-01-24T16:53:37.967Z,28.92
2019-01-24T16:56:06.667Z,27.22
2019-01-24T16:58:35.953Z,27.22
2019-01-24T17:01:09.871Z,27.17
2019-01-24T17:03:38.515Z,27.95
2019-01-24T17:06:07.856Z,27.40
2019-01-24T17:08:36.508Z,28.77
2019-01-24T17:11:05.519Z,29.52
2019-01-24T17:13:34.528Z,29.07
2019-01-24T17:16:03.845Z,27.22
2019-01-24T17:18:32.558Z,27.22
2019-01-24T17:21:01.504Z,26.85
2019-01-24T17:23:30.497Z,28.02
2019-01-24T17:25:59.617Z,27.30
2019-01-24T17:28:28.587Z,27.55
2019-01-24T17:30:57.525Z,26.62
2019-01-24T17:33:26.474Z,28.17
2019-01-24T17:35:55.104Z,26.73
2019-01-24T17:38:24.167Z,26.45
2019-01-24T17:40:53.151Z,25.52
2019-01-24T17:43:22.466Z,28.35
2019-01-24T17:45:51.446Z,27.90
2019-01-24T17:48:20.452Z,28.32
2019-01-24T17:50:49.341Z,26.05
2019-01-24T17:53:17.975Z,24.72
2019-01-24T17:55:47.307Z,24.15
2019-01-24T17:58:16.310Z,21.97
2019-01-24T18:00:50.405Z,22.90
2019-01-24T18:03:19.325Z,24.80
2019-01-24T18:05:48.310Z,24.18
2019-01-24T18:08:17.300Z,24.90
2019-01-24T18:10:45.945Z,24.40
2019-01-24T18:13:14.853Z,25.45
2019-01-24T18:15:43.983Z,24.75
2019-01-24T18:18:14.373Z,23.90
2019-01-24T18:20:43.611Z,23.98
2019-01-24T18:23:12.812Z,21.27
2019-01-24T18:25:41.908Z,23.05
2019-01-24T18:28:12.639Z,25.97
2019-01-24T18:30:41.735Z,22.02
2019-01-24T18:33:10.728Z,26.20
2019-01-24T18:35:39.520Z,27.15
2019-01-24T18:38:08.938Z,26.48
2019-01-24T18:40:37.775Z,26.60
2019-01-24T18:43:10.467Z,24.23
2019-01-24T18:45:42.938Z,26.50
2019-01-24T18:48:11.662Z,27.80
2019-01-24T18:50:40.357Z,29.57
2019-01-24T18:53:09.107Z,29.63
2019-01-24T18:55:37.748Z,26.93
2019-01-24T18:58:07.325Z,26.05
2019-01-24T19:00:38.765Z,25.82
2019-01-24T19:03:08.680Z,25.88
2019-01-24T19:05:37.879Z,26.75
2019-01-24T19:08:06.719Z,28.20
2019-01-24T19:10:35.446Z,27.75
2019-01-24T19:13:05.115Z,28.47
2019-01-24T19:15:33.793Z,28.90
2019-01-24T19:18:02.748Z,28.20
2019-01-24T19:20:31.514Z,29.90
2019-01-24T19:23:00.528Z,28.17
2019-01-24T19:25:29.154Z,26.68
2019-01-24T19:27:58.144Z,28.90
2019-01-24T19:30:29.255Z,24.45
2019-01-24T19:32:57.879Z,29.63
2019-01-24T19:35:26.581Z,27.07
2019-01-24T19:37:55.567Z,26.65
2019-01-24T19:40:25.348Z,28.12
2019-01-24T19:42:54.059Z,29.07
2019-01-24T19:45:24.092Z,27.35
2019-01-24T19:47:52.940Z,25.10
2019-01-24T19:50:23.861Z,23.87
2019-01-24T19:52:52.768Z,24.20
2019-01-24T19:55:21.838Z,24.10
2019-01-24T19:57:50.779Z,26.17
2019-01-24T20:00:24.700Z,23.92
2019-01-24T20:02:53.753Z,22.02
2019-01-24T20:05:22.736Z,24.98
2019-01-24T20:07:51.830Z,24.27
2019-01-24T20:10:22.298Z,23.62
2019-01-24T20:12:51.371Z,24.20
2019-01-24T20:15:22.001Z,24.02
2019-01-24T20:17:51.051Z,23.27
2019-01-24T20:20:20.339Z,22.52
2019-01-24T20:22:49.558Z,19.55
2019-01-24T20:25:20.226Z,21.82
2019-01-24T20:27:48.931Z,21.45
2019-01-24T20:30:22.207Z,21.52
2019-01-24T20:32:51.403Z,23.98
2019-01-24T20:35:26.340Z,22.17
2019-01-24T20:37:55.037Z,22.02
2019-01-24T20:40:23.739Z,21.12
2019-01-24T20:42:52.803Z,20.77
2019-01-24T20:45:21.798Z,21.10
2019-01-24T20:47:50.795Z,20.52
2019-01-24T20:50:19.465Z,22.82
2019-01-24T20:52:48.472Z,24.57
2019-01-24T20:55:17.206Z,21.87
2019-01-24T20:57:46.560Z,24.02
2019-01-24T21:00:20.058Z,23.30
2019-01-24T21:02:49.667Z,24.20
2019-01-24T21:05:19.935Z,24.12
2019-01-24T21:07:49.143Z,24.45
2019-01-24T21:10:22.892Z,22.95
2019-01-24T21:12:52.196Z,24.10
2019-01-24T21:15:21.598Z,23.70
2019-01-24T21:17:50.591Z,24.95
2019-01-24T21:20:24.093Z,23.67
2019-01-24T21:22:53.084Z,24.40
2019-01-24T21:25:22.811Z,26.07
2019-01-24T21:27:51.526Z,23.18
2019-01-24T21:30:25.960Z,23.25
2019-01-24T21:32:55.020Z,24.07
2019-01-24T21:35:24.300Z,24.82
2019-01-24T21:37:53.043Z,24.02
2019-01-24T21:40:22.490Z,22.48
2019-01-24T21:42:51.792Z,18.62
2019-01-24T21:45:23.141Z,22.15
2019-01-24T21:47:52.441Z,22.17
2019-01-24T21:50:22.691Z,18.17
2019-01-24T21:52:51.656Z,24.32
2019-01-24T21:55:21.346Z,23.75
2019-01-24T21:57:50.563Z,20.60
2019-01-24T22:00:21.163Z,21.62
2019-01-24T22:02:50.609Z,23.55
2019-01-24T22:05:20.299Z,21.30
2019-01-24T22:07:49.413Z,21.80
2019-01-24T22:10:20.560Z,23.27
2019-01-24T22:12:49.351Z,21.85
2019-01-24T22:15:19.669Z,22.48
2019-01-24T22:17:48.667Z,20.00
2019-01-24T22:20:17.757Z,22.15
2019-01-24T22:22:46.779Z,22.17
2019-01-24T22:25:17.470Z,21.33
2019-01-24T22:27:46.687Z,22.02
2019-01-24T22:30:21.548Z,23.30
2019-01-24T22:32:50.610Z,21.60
2019-01-24T22:35:19.324Z,23.55
2019-01-24T22:37:48.111Z,22.37
2019-01-24T22:40:16.923Z,22.87
2019-01-24T22:42:45.969Z,23.05
2019-01-24T22:45:17.726Z,21.50
2019-01-24T22:47:46.722Z,22.58
2019-01-24T22:50:16.336Z,22.55
2019-01-24T22:52:45.390Z,17.90
2019-01-24T22:55:15.197Z,23.62
2019-01-24T22:57:43.828Z,21.55
2019-01-24T23:00:47.428Z,24.32
2019-01-24T23:03:19.289Z,18.67
2019-01-24T23:05:47.935Z,22.40
2019-01-24T23:08:16.869Z,23.38
2019-01-24T23:10:45.572Z,23.12
2019-01-24T23:13:14.218Z,23.95
2019-01-24T23:15:43.237Z,23.75
2019-01-24T23:18:12.249Z,21.87
2019-01-24T23:20:40.965Z,22.87
2019-01-24T23:23:09.701Z,23.65
2019-01-24T23:25:38.343Z,20.85
2019-01-24T23:28:07.996Z,25.15
2019-01-24T23:30:36.643Z,24.87
2019-01-24T23:33:05.778Z,24.85
2019-01-24T23:35:34.423Z,26.15
2019-01-24T23:38:03.162Z,25.37
2019-01-24T23:40:32.354Z,26.00
2019-01-24T23:43:01.343Z,23.67
2019-01-24T23:45:30.079Z,22.98
2019-01-24T23:47:59.025Z,25.45
2019-01-24T23:50:27.663Z,22.00
2019-01-24T23:52:56.819Z,20.88
2019-01-24T23:55:25.439Z,24.50
2019-01-24T23:57:54.124Z,23.70
